sensor_id;sensor_type;location;lat;lon;timestamp;P1;durP1;ratioP1;P2;durP2;ratioP2
57191;SDS011;43052;52.588;13.396;2023-05-07T00:00:15;20.33;;;17.38;;
57191;SDS011;43052;52.588;13.396;2023-05-07T00:02:43;21.02;;;15.63;;
57191;SDS011;43052;52.588;13.396;2023-05-07T00:05:09;19.70;;;17.48;;
57191;SDS011;43052;52.588;13.396;2023-05-07T00:07:35;20.63;;;16.65;;
57191;SDS011;43052;52.588;13.396;2023-05-07T00:10:00;20.08;;;17.23;;
57191;SDS011;43052;52.588;13.396;2023-05-07T00:12:25;17.95;;;14.52;;
57191;SDS011;43052;52.588;13.396;2023-05-07T00:14:50;20.92;;;15.65;;
57191;SDS011;43052;52.588;13.396;2023-05-07T00:49:28;20.63;;;16.85;;
57191;SDS011;43052;52.588;13.396;2023-05-07T00:59:15;19.48;;;16.80;;
57191;SDS011;43052;52.588;13.396;2023-05-07T01:01:46;19.27;;;16.90;;
57191;SDS011;43052;52.588;13.396;2023-05-07T01:07:48;18.13;;;16.23;;
57191;SDS011;43052;52.588;13.396;2023-05-07T01:13:42;19.67;;;15.18;;
57191;SDS011;43052;52.588;13.396;2023-05-07T01:16:17;18.13;;;15.52;;
57191;SDS011;43052;52.588;13.396;2023-05-07T01:21:43;18.20;;;16.27;;
57191;SDS011;43052;52.588;13.396;2023-05-07T01:24:11;19.52;;;16.40;;
57191;SDS011;43052;52.588;13.396;2023-05-07T01:26:40;20.73;;;16.38;;
57191;SDS011;43052;52.588;13.396;2023-05-07T01:29:07;19.02;;;16.50;;
57191;SDS011;43052;52.588;13.396;2023-05-07T01:31:53;21.20;;;16.08;;
57191;SDS011;43052;52.588;13.396;2023-05-07T01:41:26;20.60;;;16.90;;
57191;SDS011;43052;52.588;13.396;2023-05-07T03:10:55;14.63;;;12.45;;
57191;SDS011;43052;52.588;13.396;2023-05-07T04:15:14;14.23;;;11.80;;
57191;SDS011;43052;52.588;13.396;2023-05-07T04:38:26;13.65;;;10.88;;
57191;SDS011;43052;52.588;13.396;2023-05-07T04:40:53;12.25;;;10.95;;
57191;SDS011;43052;52.588;13.396;2023-05-07T04:43:18;12.15;;;10.20;;
57191;SDS011;43052;52.588;13.396;2023-05-07T04:45:43;13.23;;;10.93;;
57191;SDS011;43052;52.588;13.396;2023-05-07T04:48:09;11.10;;;8.35;;
57191;SDS011;43052;52.588;13.396;2023-05-07T04:50:34;12.73;;;9.48;;
57191;SDS011;43052;52.588;13.396;2023-05-07T04:53:00;11.27;;;9.88;;
57191;SDS011;43052;52.588;13.396;2023-05-07T04:55:25;10.20;;;8.65;;
57191;SDS011;43052;52.588;13.396;2023-05-07T04:57:51;10.80;;;7.32;;
57191;SDS011;43052;52.588;13.396;2023-05-07T05:00:16;11.73;;;9.80;;
57191;SDS011;43052;52.588;13.396;2023-05-07T05:02:44;11.93;;;9.07;;
57191;SDS011;43052;52.588;13.396;2023-05-07T05:05:09;10.52;;;8.32;;
57191;SDS011;43052;52.588;13.396;2023-05-07T05:07:35;12.43;;;9.73;;
57191;SDS011;43052;52.588;13.396;2023-05-07T05:10:01;9.00;;;7.13;;
57191;SDS011;43052;52.588;13.396;2023-05-07T05:12:27;11.85;;;8.55;;
57191;SDS011;43052;52.588;13.396;2023-05-07T05:14:53;12.23;;;8.80;;
57191;SDS011;43052;52.588;13.396;2023-05-07T05:17:18;10.40;;;8.07;;
57191;SDS011;43052;52.588;13.396;2023-05-07T05:19:43;11.05;;;7.88;;
57191;SDS011;43052;52.588;13.396;2023-05-07T05:22:08;10.90;;;8.68;;
57191;SDS011;43052;52.588;13.396;2023-05-07T05:24:34;11.02;;;8.93;;
57191;SDS011;43052;52.588;13.396;2023-05-07T05:26:59;11.60;;;9.15;;
57191;SDS011;43052;52.588;13.396;2023-05-07T05:29:26;11.45;;;8.68;;
57191;SDS011;43052;52.588;13.396;2023-05-07T05:31:51;10.30;;;7.65;;
57191;SDS011;43052;52.588;13.396;2023-05-07T05:34:16;7.70;;;5.60;;
57191;SDS011;43052;52.588;13.396;2023-05-07T05:36:44;8.90;;;6.63;;
57191;SDS011;43052;52.588;13.396;2023-05-07T05:39:09;9.75;;;7.72;;
57191;SDS011;43052;52.588;13.396;2023-05-07T05:41:34;9.80;;;7.10;;
57191;SDS011;43052;52.588;13.396;2023-05-07T05:44:00;9.65;;;7.45;;
57191;SDS011;43052;52.588;13.396;2023-05-07T05:46:25;7.68;;;6.57;;
57191;SDS011;43052;52.588;13.396;2023-05-07T05:48:50;9.77;;;7.00;;
57191;SDS011;43052;52.588;13.396;2023-05-07T05:51:15;8.82;;;6.63;;
57191;SDS011;43052;52.588;13.396;2023-05-07T05:53:41;9.80;;;8.30;;
57191;SDS011;43052;52.588;13.396;2023-05-07T05:56:06;8.80;;;6.65;;
57191;SDS011;43052;52.588;13.396;2023-05-07T05:58:31;9.48;;;7.00;;
57191;SDS011;43052;52.588;13.396;2023-05-07T06:00:57;9.85;;;7.28;;
57191;SDS011;43052;52.588;13.396;2023-05-07T06:03:23;9.52;;;7.07;;
57191;SDS011;43052;52.588;13.396;2023-05-07T06:05:48;10.32;;;7.85;;
57191;SDS011;43052;52.588;13.396;2023-05-07T06:08:16;9.63;;;7.53;;
57191;SDS011;43052;52.588;13.396;2023-05-07T06:10:43;11.57;;;7.88;;
57191;SDS011;43052;52.588;13.396;2023-05-07T06:13:08;9.50;;;6.32;;
57191;SDS011;43052;52.588;13.396;2023-05-07T06:15:35;8.98;;;7.20;;
57191;SDS011;43052;52.588;13.396;2023-05-07T06:18:00;10.90;;;7.55;;
57191;SDS011;43052;52.588;13.396;2023-05-07T06:20:25;7.20;;;5.50;;
57191;SDS011;43052;52.588;13.396;2023-05-07T06:22:50;9.63;;;7.80;;
57191;SDS011;43052;52.588;13.396;2023-05-07T06:25:16;9.27;;;8.15;;
57191;SDS011;43052;52.588;13.396;2023-05-07T06:27:41;9.65;;;6.63;;
57191;SDS011;43052;52.588;13.396;2023-05-07T06:30:06;9.60;;;7.13;;
57191;SDS011;43052;52.588;13.396;2023-05-07T06:32:33;9.25;;;7.35;;
57191;SDS011;43052;52.588;13.396;2023-05-07T06:34:58;8.05;;;5.95;;
57191;SDS011;43052;52.588;13.396;2023-05-07T06:37:23;8.65;;;7.13;;
57191;SDS011;43052;52.588;13.396;2023-05-07T06:39:48;9.27;;;7.32;;
57191;SDS011;43052;52.588;13.396;2023-05-07T06:42:14;10.77;;;7.55;;
57191;SDS011;43052;52.588;13.396;2023-05-07T06:44:39;8.63;;;7.72;;
57191;SDS011;43052;52.588;13.396;2023-05-07T06:47:04;9.40;;;6.13;;
57191;SDS011;43052;52.588;13.396;2023-05-07T06:49:30;8.30;;;6.10;;
57191;SDS011;43052;52.588;13.396;2023-05-07T06:51:56;8.93;;;6.85;;
57191;SDS011;43052;52.588;13.396;2023-05-07T06:54:21;8.55;;;5.22;;
57191;SDS011;43052;52.588;13.396;2023-05-07T07:01:50;9.25;;;6.70;;
57191;SDS011;43052;52.588;13.396;2023-05-07T07:04:15;7.78;;;6.00;;
57191;SDS011;43052;52.588;13.396;2023-05-07T07:06:40;8.15;;;5.80;;
57191;SDS011;43052;52.588;13.396;2023-05-07T07:09:06;7.18;;;6.05;;
57191;SDS011;43052;52.588;13.396;2023-05-07T07:11:31;7.47;;;6.18;;
57191;SDS011;43052;52.588;13.396;2023-05-07T07:13:56;11.98;;;6.75;;
57191;SDS011;43052;52.588;13.396;2023-05-07T07:16:21;7.50;;;5.88;;
57191;SDS011;43052;52.588;13.396;2023-05-07T07:18:47;7.00;;;5.28;;
57191;SDS011;43052;52.588;13.396;2023-05-07T07:21:12;6.38;;;5.38;;
57191;SDS011;43052;52.588;13.396;2023-05-07T07:23:37;9.25;;;5.50;;
57191;SDS011;43052;52.588;13.396;2023-05-07T07:26:02;6.22;;;5.15;;
57191;SDS011;43052;52.588;13.396;2023-05-07T07:28:28;6.78;;;5.35;;
57191;SDS011;43052;52.588;13.396;2023-05-07T07:30:53;6.43;;;4.90;;
57191;SDS011;43052;52.588;13.396;2023-05-07T07:33:18;7.28;;;5.10;;
57191;SDS011;43052;52.588;13.396;2023-05-07T07:35:43;5.93;;;5.00;;
57191;SDS011;43052;52.588;13.396;2023-05-07T07:38:09;6.47;;;4.90;;
57191;SDS011;43052;52.588;13.396;2023-05-07T07:40:34;6.40;;;5.50;;
57191;SDS011;43052;52.588;13.396;2023-05-07T07:42:59;5.35;;;3.38;;
57191;SDS011;43052;52.588;13.396;2023-05-07T07:45:26;6.25;;;5.00;;
57191;SDS011;43052;52.588;13.396;2023-05-07T07:47:51;6.32;;;4.88;;
57191;SDS011;43052;52.588;13.396;2023-05-07T07:50:16;4.38;;;3.88;;
57191;SDS011;43052;52.588;13.396;2023-05-07T07:52:41;6.15;;;5.13;;
57191;SDS011;43052;52.588;13.396;2023-05-07T07:55:10;5.50;;;5.00;;
57191;SDS011;43052;52.588;13.396;2023-05-07T07:57:35;4.70;;;4.10;;
57191;SDS011;43052;52.588;13.396;2023-05-07T08:00:01;5.25;;;3.90;;
57191;SDS011;43052;52.588;13.396;2023-05-07T08:02:26;3.80;;;3.22;;
57191;SDS011;43052;52.588;13.396;2023-05-07T08:04:51;3.80;;;3.45;;
57191;SDS011;43052;52.588;13.396;2023-05-07T08:07:19;4.97;;;3.72;;
57191;SDS011;43052;52.588;13.396;2023-05-07T08:09:45;4.63;;;4.10;;
57191;SDS011;43052;52.588;13.396;2023-05-07T08:12:11;4.80;;;3.72;;
57191;SDS011;43052;52.588;13.396;2023-05-07T08:14:36;5.80;;;3.70;;
57191;SDS011;43052;52.588;13.396;2023-05-07T08:17:02;4.85;;;3.83;;
57191;SDS011;43052;52.588;13.396;2023-05-07T08:19:27;4.80;;;4.03;;
57191;SDS011;43052;52.588;13.396;2023-05-07T08:21:52;4.95;;;4.18;;
57191;SDS011;43052;52.588;13.396;2023-05-07T08:24:17;4.05;;;3.65;;
57191;SDS011;43052;52.588;13.396;2023-05-07T08:26:43;4.35;;;3.17;;
57191;SDS011;43052;52.588;13.396;2023-05-07T08:29:10;5.07;;;3.75;;
57191;SDS011;43052;52.588;13.396;2023-05-07T08:31:35;4.82;;;3.95;;
57191;SDS011;43052;52.588;13.396;2023-05-07T08:34:00;4.90;;;3.45;;
57191;SDS011;43052;52.588;13.396;2023-05-07T08:36:26;4.65;;;3.97;;
57191;SDS011;43052;52.588;13.396;2023-05-07T08:38:51;4.43;;;3.50;;
57191;SDS011;43052;52.588;13.396;2023-05-07T08:41:17;4.55;;;3.40;;
57191;SDS011;43052;52.588;13.396;2023-05-07T08:43:44;4.82;;;3.67;;
57191;SDS011;43052;52.588;13.396;2023-05-07T08:46:12;4.53;;;3.30;;
57191;SDS011;43052;52.588;13.396;2023-05-07T08:48:44;4.07;;;3.53;;
57191;SDS011;43052;52.588;13.396;2023-05-07T08:51:13;5.20;;;3.67;;
57191;SDS011;43052;52.588;13.396;2023-05-07T08:53:40;5.05;;;3.42;;
57191;SDS011;43052;52.588;13.396;2023-05-07T08:56:07;2.80;;;2.45;;
57191;SDS011;43052;52.588;13.396;2023-05-07T08:58:33;4.57;;;3.15;;
57191;SDS011;43052;52.588;13.396;2023-05-07T09:00:58;5.97;;;3.08;;
57191;SDS011;43052;52.588;13.396;2023-05-07T09:03:32;3.75;;;3.15;;
57191;SDS011;43052;52.588;13.396;2023-05-07T09:05:57;4.78;;;3.03;;
57191;SDS011;43052;52.588;13.396;2023-05-07T09:08:26;3.35;;;2.60;;
57191;SDS011;43052;52.588;13.396;2023-05-07T09:10:52;3.95;;;2.80;;
57191;SDS011;43052;52.588;13.396;2023-05-07T09:13:18;5.78;;;3.10;;
57191;SDS011;43052;52.588;13.396;2023-05-07T09:15:43;4.22;;;2.95;;
57191;SDS011;43052;52.588;13.396;2023-05-07T09:18:08;3.17;;;2.50;;
57191;SDS011;43052;52.588;13.396;2023-05-07T09:20:34;3.90;;;2.90;;
57191;SDS011;43052;52.588;13.396;2023-05-07T09:23:01;3.90;;;2.85;;
57191;SDS011;43052;52.588;13.396;2023-05-07T09:25:30;4.43;;;3.55;;
57191;SDS011;43052;52.588;13.396;2023-05-07T09:27:56;4.03;;;2.75;;
57191;SDS011;43052;52.588;13.396;2023-05-07T09:30:22;4.43;;;2.97;;
57191;SDS011;43052;52.588;13.396;2023-05-07T09:32:47;4.13;;;3.28;;
57191;SDS011;43052;52.588;13.396;2023-05-07T09:35:16;5.60;;;3.55;;
57191;SDS011;43052;52.588;13.396;2023-05-07T09:37:42;4.28;;;3.42;;
57191;SDS011;43052;52.588;13.396;2023-05-07T09:40:07;4.10;;;3.42;;
57191;SDS011;43052;52.588;13.396;2023-05-07T09:42:36;9.02;;;4.22;;
57191;SDS011;43052;52.588;13.396;2023-05-07T09:45:14;3.97;;;3.30;;
57191;SDS011;43052;52.588;13.396;2023-05-07T09:47:39;5.50;;;3.58;;
57191;SDS011;43052;52.588;13.396;2023-05-07T09:50:09;4.75;;;3.72;;
57191;SDS011;43052;52.588;13.396;2023-05-07T09:52:43;4.03;;;3.00;;
57191;SDS011;43052;52.588;13.396;2023-05-07T09:55:10;3.90;;;2.85;;
57191;SDS011;43052;52.588;13.396;2023-05-07T09:57:35;4.15;;;3.30;;
57191;SDS011;43052;52.588;13.396;2023-05-07T10:00:01;3.53;;;3.10;;
57191;SDS011;43052;52.588;13.396;2023-05-07T10:02:30;3.53;;;2.92;;
57191;SDS011;43052;52.588;13.396;2023-05-07T10:05:00;3.35;;;2.10;;
57191;SDS011;43052;52.588;13.396;2023-05-07T10:07:26;4.07;;;2.65;;
57191;SDS011;43052;52.588;13.396;2023-05-07T10:09:52;4.63;;;2.97;;
57191;SDS011;43052;52.588;13.396;2023-05-07T10:12:19;4.03;;;2.97;;
57191;SDS011;43052;52.588;13.396;2023-05-07T10:14:45;3.88;;;2.75;;
57191;SDS011;43052;52.588;13.396;2023-05-07T10:17:12;3.70;;;2.90;;
57191;SDS011;43052;52.588;13.396;2023-05-07T10:19:38;4.10;;;2.70;;
57191;SDS011;43052;52.588;13.396;2023-05-07T10:22:04;4.43;;;2.83;;
57191;SDS011;43052;52.588;13.396;2023-05-07T10:24:34;5.22;;;2.80;;
57191;SDS011;43052;52.588;13.396;2023-05-07T10:27:02;2.83;;;2.10;;
57191;SDS011;43052;52.588;13.396;2023-05-07T10:29:37;3.72;;;2.67;;
57191;SDS011;43052;52.588;13.396;2023-05-07T10:32:20;3.42;;;2.80;;
57191;SDS011;43052;52.588;13.396;2023-05-07T10:35:11;5.18;;;3.15;;
57191;SDS011;43052;52.588;13.396;2023-05-07T10:37:42;4.13;;;3.00;;
57191;SDS011;43052;52.588;13.396;2023-05-07T10:40:10;3.78;;;2.28;;
57191;SDS011;43052;52.588;13.396;2023-05-07T10:42:36;2.78;;;2.22;;
57191;SDS011;43052;52.588;13.396;2023-05-07T10:45:11;3.30;;;2.50;;
57191;SDS011;43052;52.588;13.396;2023-05-07T10:50:30;5.90;;;2.22;;
57191;SDS011;43052;52.588;13.396;2023-05-07T10:55:49;5.30;;;3.00;;
57191;SDS011;43052;52.588;13.396;2023-05-07T11:00:50;4.10;;;2.90;;
57191;SDS011;43052;52.588;13.396;2023-05-07T11:03:16;3.03;;;2.30;;
57191;SDS011;43052;52.588;13.396;2023-05-07T11:05:41;2.20;;;1.85;;
57191;SDS011;43052;52.588;13.396;2023-05-07T11:08:07;4.40;;;2.60;;
57191;SDS011;43052;52.588;13.396;2023-05-07T11:10:49;4.65;;;2.20;;
57191;SDS011;43052;52.588;13.396;2023-05-07T11:13:19;3.20;;;2.00;;
57191;SDS011;43052;52.588;13.396;2023-05-07T11:16:18;5.15;;;3.28;;
57191;SDS011;43052;52.588;13.396;2023-05-07T11:18:48;4.15;;;2.95;;
57191;SDS011;43052;52.588;13.396;2023-05-07T11:21:31;2.58;;;2.20;;
57191;SDS011;43052;52.588;13.396;2023-05-07T11:24:01;3.00;;;2.40;;
57191;SDS011;43052;52.588;13.396;2023-05-07T11:26:28;3.47;;;2.20;;
57191;SDS011;43052;52.588;13.396;2023-05-07T11:28:55;4.22;;;2.70;;
57191;SDS011;43052;52.588;13.396;2023-05-07T11:31:23;3.10;;;1.65;;
57191;SDS011;43052;52.588;13.396;2023-05-07T11:33:51;4.43;;;2.65;;
57191;SDS011;43052;52.588;13.396;2023-05-07T11:36:17;4.70;;;2.97;;
57191;SDS011;43052;52.588;13.396;2023-05-07T11:38:43;3.35;;;2.42;;
57191;SDS011;43052;52.588;13.396;2023-05-07T11:41:08;3.72;;;2.40;;
57191;SDS011;43052;52.588;13.396;2023-05-07T11:43:34;3.78;;;2.10;;
57191;SDS011;43052;52.588;13.396;2023-05-07T11:46:10;3.90;;;2.53;;
57191;SDS011;43052;52.588;13.396;2023-05-07T11:48:36;2.08;;;1.85;;
57191;SDS011;43052;52.588;13.396;2023-05-07T11:51:03;3.25;;;1.80;;
57191;SDS011;43052;52.588;13.396;2023-05-07T11:53:36;2.90;;;2.38;;
57191;SDS011;43052;52.588;13.396;2023-05-07T11:56:06;3.80;;;2.67;;
57191;SDS011;43052;52.588;13.396;2023-05-07T11:58:32;3.13;;;2.40;;
57191;SDS011;43052;52.588;13.396;2023-05-07T12:00:57;3.25;;;2.30;;
57191;SDS011;43052;52.588;13.396;2023-05-07T12:03:23;3.60;;;2.33;;
57191;SDS011;43052;52.588;13.396;2023-05-07T12:05:48;3.65;;;2.50;;
57191;SDS011;43052;52.588;13.396;2023-05-07T12:08:17;3.60;;;2.30;;
57191;SDS011;43052;52.588;13.396;2023-05-07T12:10:43;3.08;;;1.88;;
57191;SDS011;43052;52.588;13.396;2023-05-07T12:13:16;1.63;;;1.45;;
57191;SDS011;43052;52.588;13.396;2023-05-07T12:15:42;3.60;;;2.45;;
57191;SDS011;43052;52.588;13.396;2023-05-07T12:18:08;3.17;;;1.73;;
57191;SDS011;43052;52.588;13.396;2023-05-07T12:20:34;2.88;;;2.20;;
57191;SDS011;43052;52.588;13.396;2023-05-07T12:23:00;4.28;;;2.53;;
57191;SDS011;43052;52.588;13.396;2023-05-07T12:25:26;2.35;;;1.83;;
57191;SDS011;43052;52.588;13.396;2023-05-07T12:27:54;4.45;;;2.33;;
57191;SDS011;43052;52.588;13.396;2023-05-07T12:30:20;3.42;;;2.03;;
57191;SDS011;43052;52.588;13.396;2023-05-07T12:32:45;2.78;;;2.00;;
57191;SDS011;43052;52.588;13.396;2023-05-07T12:35:10;4.45;;;2.22;;
57191;SDS011;43052;52.588;13.396;2023-05-07T12:37:35;2.65;;;1.95;;
57191;SDS011;43052;52.588;13.396;2023-05-07T12:40:05;3.03;;;2.10;;
57191;SDS011;43052;52.588;13.396;2023-05-07T12:42:38;5.88;;;2.60;;
57191;SDS011;43052;52.588;13.396;2023-05-07T12:45:11;3.28;;;1.90;;
57191;SDS011;43052;52.588;13.396;2023-05-07T12:47:44;4.40;;;2.35;;
57191;SDS011;43052;52.588;13.396;2023-05-07T12:50:10;4.53;;;2.10;;
57191;SDS011;43052;52.588;13.396;2023-05-07T12:52:36;3.72;;;2.35;;
57191;SDS011;43052;52.588;13.396;2023-05-07T12:55:05;4.25;;;2.10;;
57191;SDS011;43052;52.588;13.396;2023-05-07T12:57:37;2.30;;;1.90;;
57191;SDS011;43052;52.588;13.396;2023-05-07T13:00:06;2.42;;;1.77;;
57191;SDS011;43052;52.588;13.396;2023-05-07T13:02:38;2.83;;;2.03;;
57191;SDS011;43052;52.588;13.396;2023-05-07T13:05:04;3.47;;;2.20;;
57191;SDS011;43052;52.588;13.396;2023-05-07T13:07:30;2.65;;;1.85;;
57191;SDS011;43052;52.588;13.396;2023-05-07T13:09:55;3.03;;;2.00;;
57191;SDS011;43052;52.588;13.396;2023-05-07T13:12:20;2.58;;;1.63;;
57191;SDS011;43052;52.588;13.396;2023-05-07T13:14:45;2.90;;;1.92;;
57191;SDS011;43052;52.588;13.396;2023-05-07T13:17:10;3.22;;;2.10;;
57191;SDS011;43052;52.588;13.396;2023-05-07T13:22:45;3.25;;;2.13;;
57191;SDS011;43052;52.588;13.396;2023-05-07T13:25:10;2.60;;;2.08;;
57191;SDS011;43052;52.588;13.396;2023-05-07T13:27:36;2.92;;;1.67;;
57191;SDS011;43052;52.588;13.396;2023-05-07T13:30:02;2.92;;;2.08;;
57191;SDS011;43052;52.588;13.396;2023-05-07T13:32:28;3.30;;;2.35;;
57191;SDS011;43052;52.588;13.396;2023-05-07T13:34:53;3.40;;;2.13;;
57191;SDS011;43052;52.588;13.396;2023-05-07T13:37:18;3.95;;;2.17;;
57191;SDS011;43052;52.588;13.396;2023-05-07T13:39:44;2.72;;;1.83;;
57191;SDS011;43052;52.588;13.396;2023-05-07T13:42:09;3.40;;;2.50;;
57191;SDS011;43052;52.588;13.396;2023-05-07T13:44:34;5.15;;;2.50;;
57191;SDS011;43052;52.588;13.396;2023-05-07T13:47:00;3.42;;;2.05;;
57191;SDS011;43052;52.588;13.396;2023-05-07T13:49:25;2.63;;;2.05;;
57191;SDS011;43052;52.588;13.396;2023-05-07T13:51:50;3.42;;;1.88;;
57191;SDS011;43052;52.588;13.396;2023-05-07T13:54:15;4.25;;;2.13;;
57191;SDS011;43052;52.588;13.396;2023-05-07T13:56:41;4.13;;;2.33;;
57191;SDS011;43052;52.588;13.396;2023-05-07T13:59:08;3.15;;;2.17;;
57191;SDS011;43052;52.588;13.396;2023-05-07T14:01:33;2.20;;;1.63;;
57191;SDS011;43052;52.588;13.396;2023-05-07T14:03:59;3.08;;;2.28;;
57191;SDS011;43052;52.588;13.396;2023-05-07T14:06:24;2.42;;;1.60;;
57191;SDS011;43052;52.588;13.396;2023-05-07T14:08:50;4.47;;;2.10;;
57191;SDS011;43052;52.588;13.396;2023-05-07T14:11:15;2.35;;;1.95;;
57191;SDS011;43052;52.588;13.396;2023-05-07T14:13:40;2.28;;;2.00;;
57191;SDS011;43052;52.588;13.396;2023-05-07T14:16:05;2.38;;;1.65;;
57191;SDS011;43052;52.588;13.396;2023-05-07T14:18:31;3.45;;;2.10;;
57191;SDS011;43052;52.588;13.396;2023-05-07T14:20:58;3.22;;;2.20;;
57191;SDS011;43052;52.588;13.396;2023-05-07T14:23:23;3.00;;;2.00;;
57191;SDS011;43052;52.588;13.396;2023-05-07T14:25:51;4.78;;;2.20;;
57191;SDS011;43052;52.588;13.396;2023-05-07T14:28:31;3.85;;;2.30;;
57191;SDS011;43052;52.588;13.396;2023-05-07T14:30:56;2.75;;;2.05;;
57191;SDS011;43052;52.588;13.396;2023-05-07T14:33:24;3.40;;;2.20;;
57191;SDS011;43052;52.588;13.396;2023-05-07T14:35:50;2.63;;;2.17;;
57191;SDS011;43052;52.588;13.396;2023-05-07T14:38:15;1.85;;;1.60;;
57191;SDS011;43052;52.588;13.396;2023-05-07T14:40:42;1.85;;;1.65;;
57191;SDS011;43052;52.588;13.396;2023-05-07T14:43:08;2.42;;;2.00;;
57191;SDS011;43052;52.588;13.396;2023-05-07T14:45:33;3.78;;;2.05;;
57191;SDS011;43052;52.588;13.396;2023-05-07T14:48:00;1.90;;;1.63;;
57191;SDS011;43052;52.588;13.396;2023-05-07T14:50:25;3.35;;;1.70;;
57191;SDS011;43052;52.588;13.396;2023-05-07T14:52:50;3.97;;;1.98;;
57191;SDS011;43052;52.588;13.396;2023-05-07T14:55:15;2.88;;;1.70;;
57191;SDS011;43052;52.588;13.396;2023-05-07T14:57:41;3.45;;;2.00;;
57191;SDS011;43052;52.588;13.396;2023-05-07T15:00:06;2.13;;;1.75;;
57191;SDS011;43052;52.588;13.396;2023-05-07T15:02:33;2.47;;;1.85;;
57191;SDS011;43052;52.588;13.396;2023-05-07T15:04:59;2.40;;;1.60;;
57191;SDS011;43052;52.588;13.396;2023-05-07T15:07:24;3.20;;;1.85;;
57191;SDS011;43052;52.588;13.396;2023-05-07T15:09:50;3.75;;;1.90;;
57191;SDS011;43052;52.588;13.396;2023-05-07T15:12:19;2.75;;;1.80;;
57191;SDS011;43052;52.588;13.396;2023-05-07T15:14:44;2.60;;;1.65;;
57191;SDS011;43052;52.588;13.396;2023-05-07T15:17:10;2.35;;;1.77;;
57191;SDS011;43052;52.588;13.396;2023-05-07T15:19:35;2.28;;;1.65;;
57191;SDS011;43052;52.588;13.396;2023-05-07T15:22:00;2.25;;;1.63;;
57191;SDS011;43052;52.588;13.396;2023-05-07T15:24:29;2.97;;;2.58;;
57191;SDS011;43052;52.588;13.396;2023-05-07T15:26:55;2.80;;;1.92;;
57191;SDS011;43052;52.588;13.396;2023-05-07T15:29:20;2.47;;;1.80;;
57191;SDS011;43052;52.588;13.396;2023-05-07T15:31:46;2.53;;;1.45;;
57191;SDS011;43052;52.588;13.396;2023-05-07T15:34:12;2.65;;;1.90;;
57191;SDS011;43052;52.588;13.396;2023-05-07T16:28:08;2.83;;;2.35;;
57191;SDS011;43052;52.588;13.396;2023-05-07T16:57:46;16.05;;;8.27;;
57191;SDS011;43052;52.588;13.396;2023-05-07T17:00:31;4.85;;;2.50;;
57191;SDS011;43052;52.588;13.396;2023-05-07T17:10:42;2.15;;;1.70;;
57191;SDS011;43052;52.588;13.396;2023-05-07T17:13:18;3.37;;;2.67;;
57191;SDS011;43052;52.588;13.396;2023-05-07T17:16:05;3.58;;;2.83;;
57191;SDS011;43052;52.588;13.396;2023-05-07T17:19:01;4.28;;;2.10;;
57191;SDS011;43052;52.588;13.396;2023-05-07T17:25:40;3.10;;;2.08;;
57191;SDS011;43052;52.588;13.396;2023-05-07T17:38:32;3.83;;;2.00;;
57191;SDS011;43052;52.588;13.396;2023-05-07T17:40:58;3.30;;;1.90;;
57191;SDS011;43052;52.588;13.396;2023-05-07T17:43:23;2.78;;;2.00;;
57191;SDS011;43052;52.588;13.396;2023-05-07T17:45:49;2.28;;;1.67;;
57191;SDS011;43052;52.588;13.396;2023-05-07T17:48:14;3.28;;;2.00;;
57191;SDS011;43052;52.588;13.396;2023-05-07T17:50:41;3.30;;;2.30;;
57191;SDS011;43052;52.588;13.396;2023-05-07T17:53:06;3.05;;;2.33;;
57191;SDS011;43052;52.588;13.396;2023-05-07T17:55:33;3.55;;;2.00;;
57191;SDS011;43052;52.588;13.396;2023-05-07T17:58:04;2.15;;;1.90;;
57191;SDS011;43052;52.588;13.396;2023-05-07T18:00:29;3.08;;;2.33;;
57191;SDS011;43052;52.588;13.396;2023-05-07T18:02:54;2.08;;;1.88;;
57191;SDS011;43052;52.588;13.396;2023-05-07T18:05:20;2.88;;;2.10;;
57191;SDS011;43052;52.588;13.396;2023-05-07T18:07:45;2.42;;;1.83;;
57191;SDS011;43052;52.588;13.396;2023-05-07T18:10:11;2.92;;;2.00;;
57191;SDS011;43052;52.588;13.396;2023-05-07T18:12:36;1.83;;;1.70;;
57191;SDS011;43052;52.588;13.396;2023-05-07T18:15:01;3.85;;;2.42;;
57191;SDS011;43052;52.588;13.396;2023-05-07T18:17:26;2.47;;;2.28;;
57191;SDS011;43052;52.588;13.396;2023-05-07T18:19:52;3.00;;;2.00;;
57191;SDS011;43052;52.588;13.396;2023-05-07T19:05:14;2.65;;;1.80;;
57191;SDS011;43052;52.588;13.396;2023-05-07T19:26:45;4.30;;;2.80;;
57191;SDS011;43052;52.588;13.396;2023-05-07T19:29:11;2.67;;;2.13;;
57191;SDS011;43052;52.588;13.396;2023-05-07T19:31:36;2.83;;;2.20;;
57191;SDS011;43052;52.588;13.396;2023-05-07T19:34:01;3.85;;;2.65;;
57191;SDS011;43052;52.588;13.396;2023-05-07T19:36:27;4.13;;;2.65;;
57191;SDS011;43052;52.588;13.396;2023-05-07T19:38:52;3.70;;;2.60;;
57191;SDS011;43052;52.588;13.396;2023-05-07T19:41:19;3.33;;;2.60;;
57191;SDS011;43052;52.588;13.396;2023-05-07T19:43:45;4.80;;;3.00;;
57191;SDS011;43052;52.588;13.396;2023-05-07T19:46:11;5.10;;;2.17;;
57191;SDS011;43052;52.588;13.396;2023-05-07T19:48:36;4.03;;;2.75;;
57191;SDS011;43052;52.588;13.396;2023-05-07T19:51:01;4.70;;;2.88;;
57191;SDS011;43052;52.588;13.396;2023-05-07T19:53:27;4.50;;;2.88;;
57191;SDS011;43052;52.588;13.396;2023-05-07T19:56:04;4.68;;;3.28;;
57191;SDS011;43052;52.588;13.396;2023-05-07T20:04:28;5.20;;;3.08;;
57191;SDS011;43052;52.588;13.396;2023-05-07T20:07:20;5.25;;;2.90;;
57191;SDS011;43052;52.588;13.396;2023-05-07T20:09:45;4.00;;;2.63;;
57191;SDS011;43052;52.588;13.396;2023-05-07T20:12:10;6.13;;;3.47;;
57191;SDS011;43052;52.588;13.396;2023-05-07T20:14:35;5.13;;;3.45;;
57191;SDS011;43052;52.588;13.396;2023-05-07T20:17:01;6.75;;;3.00;;
57191;SDS011;43052;52.588;13.396;2023-05-07T20:19:26;5.10;;;3.22;;
57191;SDS011;43052;52.588;13.396;2023-05-07T20:21:51;5.82;;;3.35;;
57191;SDS011;43052;52.588;13.396;2023-05-07T20:24:16;5.47;;;2.95;;
57191;SDS011;43052;52.588;13.396;2023-05-07T20:26:43;5.22;;;3.53;;
57191;SDS011;43052;52.588;13.396;2023-05-07T20:29:09;3.95;;;2.53;;
57191;SDS011;43052;52.588;13.396;2023-05-07T20:31:34;7.30;;;3.35;;
57191;SDS011;43052;52.588;13.396;2023-05-07T20:34:00;5.22;;;3.50;;
57191;SDS011;43052;52.588;13.396;2023-05-07T20:36:25;7.57;;;6.05;;
57191;SDS011;43052;52.588;13.396;2023-05-07T20:38:52;4.47;;;2.90;;
57191;SDS011;43052;52.588;13.396;2023-05-07T20:41:17;4.22;;;3.40;;
57191;SDS011;43052;52.588;13.396;2023-05-07T20:43:42;4.63;;;3.00;;
57191;SDS011;43052;52.588;13.396;2023-05-07T20:46:08;6.38;;;3.83;;
57191;SDS011;43052;52.588;13.396;2023-05-07T20:48:33;7.90;;;3.92;;
57191;SDS011;43052;52.588;13.396;2023-05-07T20:50:59;3.80;;;3.00;;
57191;SDS011;43052;52.588;13.396;2023-05-07T20:53:29;4.63;;;3.17;;
57191;SDS011;43052;52.588;13.396;2023-05-07T20:55:55;5.30;;;3.70;;
57191;SDS011;43052;52.588;13.396;2023-05-07T20:58:21;5.25;;;4.00;;
57191;SDS011;43052;52.588;13.396;2023-05-07T21:00:50;5.07;;;3.67;;
57191;SDS011;43052;52.588;13.396;2023-05-07T21:03:19;5.40;;;4.37;;
57191;SDS011;43052;52.588;13.396;2023-05-07T21:05:55;6.95;;;4.30;;
57191;SDS011;43052;52.588;13.396;2023-05-07T21:08:21;5.38;;;4.35;;
57191;SDS011;43052;52.588;13.396;2023-05-07T21:10:47;6.68;;;5.05;;
57191;SDS011;43052;52.588;13.396;2023-05-07T21:13:12;6.38;;;4.60;;
57191;SDS011;43052;52.588;13.396;2023-05-07T21:15:38;5.65;;;4.80;;
57191;SDS011;43052;52.588;13.396;2023-05-07T21:18:05;5.47;;;3.92;;
57191;SDS011;43052;52.588;13.396;2023-05-07T21:20:30;13.02;;;7.93;;